Time;durP1;ratioP1;P1;durP2;ratioP2;P2;SDS_P1;SDS_P2;PMS_P1;PMS_P2;Temp;Humidity;BMP_temperature;BMP_pressure;BME280_temperature;BME280_humidity;BME280_pressure;Samples;Min_cycle;Max_cycle;Signal;HPM_P1;HPM_P2
2023/07/15 00:00:14;;;;;;;6.97;3.35;;;20.00;68.20;;;;;;5028174;28;20053;-77
2023/07/15 00:02:45;;;;;;;5.10;3.03;;;20.00;68.10;;;;;;5028259;28;20132;-77
2023/07/15 00:05:20;;;;;;;5.82;2.95;;;20.00;68.00;;;;;;5028205;28;20395;-77
2023/07/15 00:07:48;;;;;;;6.05;3.15;;;20.00;67.80;;;;;;5025728;28;20436;-77
2023/07/15 00:10:17;;;;;;;5.57;2.90;;;20.00;67.60;;;;;;5029462;28;20120;-76
2023/07/15 00:12:45;;;;;;;6.10;3.00;;;20.00;67.50;;;;;;5027385;28;20137;-76
2023/07/15 00:15:13;;;;;;;6.07;3.30;;;20.00;67.50;;;;;;5029370;28;20046;-76
2023/07/15 00:17:40;;;;;;;6.45;3.00;;;20.00;67.30;;;;;;5029413;28;20335;-76
2023/07/15 00:20:10;;;;;;;6.60;3.35;;;20.00;67.30;;;;;;5030482;28;20050;-77
2023/07/15 00:22:37;;;;;;;6.72;3.00;;;20.00;67.20;;;;;;5028455;28;20050;-76
2023/07/15 00:25:05;;;;;;;7.30;2.92;;;20.00;67.20;;;;;;5013397;28;20046;-76
2023/07/15 00:27:35;;;;;;;5.80;3.03;;;20.00;67.10;;;;;;5020803;28;20054;-76
2023/07/15 00:30:02;;;;;;;6.35;2.90;;;20.00;66.90;;;;;;5027374;28;20276;-76
2023/07/15 00:32:29;;;;;;;6.57;3.53;;;19.90;66.80;;;;;;5026992;28;20116;-76
2023/07/15 00:34:56;;;;;;;7.57;3.30;;;19.90;66.90;;;;;;5026470;28;20531;-77
2023/07/15 00:37:23;;;;;;;7.03;2.90;;;19.90;66.80;;;;;;5024735;28;20783;-77
2023/07/15 00:39:50;;;;;;;5.37;2.90;;;19.90;66.80;;;;;;5025047;28;20054;-76
2023/07/15 00:42:35;;;;;;;6.85;2.90;;;19.90;66.70;;;;;;5018264;28;20256;-77
2023/07/15 00:45:03;;;;;;;5.55;3.00;;;19.90;66.60;;;;;;5026050;28;20174;-76
2023/07/15 00:47:38;;;;;;;6.07;2.95;;;19.90;66.50;;;;;;5028960;28;20053;-77
2023/07/15 00:50:06;;;;;;;7.43;3.22;;;19.90;66.50;;;;;;5028143;28;20072;-77
2023/07/15 00:52:33;;;;;;;6.17;2.90;;;19.90;66.50;;;;;;5027348;28;20615;-77
2023/07/15 00:55:03;;;;;;;6.88;2.70;;;19.90;66.40;;;;;;5011389;28;20273;-77
2023/07/15 00:57:30;;;;;;;5.65;3.08;;;19.90;66.30;;;;;;5024096;28;20050;-76
2023/07/15 00:59:59;;;;;;;5.88;3.10;;;19.90;66.20;;;;;;5017791;28;20128;-77
2023/07/15 01:02:27;;;;;;;7.03;3.22;;;19.90;66.20;;;;;;5011032;28;20057;-77
2023/07/15 01:04:55;;;;;;;5.27;2.90;;;19.90;66.10;;;;;;5010300;28;20129;-76
2023/07/15 01:07:23;;;;;;;5.63;2.92;;;19.90;66.10;;;;;;5024006;28;20792;-77
2023/07/15 01:09:51;;;;;;;5.85;2.83;;;19.90;65.90;;;;;;5004767;28;20410;-76
2023/07/15 01:12:18;;;;;;;5.55;2.70;;;19.90;65.90;;;;;;5009820;28;20140;-77
2023/07/15 01:14:47;;;;;;;6.78;3.00;;;19.90;65.80;;;;;;5026854;28;20052;-77
2023/07/15 01:17:14;;;;;;;5.87;2.53;;;19.90;65.60;;;;;;5009041;28;20049;-77
2023/07/15 01:19:41;;;;;;;7.22;3.08;;;19.90;65.60;;;;;;5010843;28;20344;-77
2023/07/15 01:22:09;;;;;;;7.00;2.83;;;19.90;65.60;;;;;;5009731;28;20504;-77
2023/07/15 01:24:39;;;;;;;5.82;3.00;;;19.90;65.50;;;;;;5010439;28;20650;-77
2023/07/15 01:27:08;;;;;;;7.05;2.78;;;19.90;65.40;;;;;;5027010;28;20053;-76
2023/07/15 01:29:35;;;;;;;6.17;2.80;;;19.90;65.20;;;;;;5026323;28;20121;-77
2023/07/15 01:32:02;;;;;;;5.85;2.78;;;19.90;65.20;;;;;;5023625;28;20278;-76
2023/07/15 01:34:30;;;;;;;4.80;2.60;;;19.90;65.00;;;;;;4993272;28;20038;-77
2023/07/15 01:36:58;;;;;;;6.78;2.80;;;19.90;65.00;;;;;;5027204;28;20582;-77
2023/07/15 01:39:25;;;;;;;6.03;2.88;;;19.90;64.80;;;;;;5026937;28;20053;-77
2023/07/15 01:41:55;;;;;;;5.43;2.80;;;19.90;64.70;;;;;;5026765;28;20046;-77
2023/07/15 01:44:23;;;;;;;6.20;2.80;;;19.90;64.60;;;;;;5007575;28;20776;-76
2023/07/15 01:46:50;;;;;;;5.32;2.75;;;19.90;64.50;;;;;;4991527;28;20054;-77
2023/07/15 01:49:17;;;;;;;6.50;2.83;;;19.90;64.40;;;;;;5011006;28;20142;-77
2023/07/15 01:51:44;;;;;;;5.97;2.90;;;19.90;64.40;;;;;;5009317;28;20042;-77
2023/07/15 01:54:11;;;;;;;5.73;2.83;;;19.90;64.30;;;;;;4990071;28;20050;-77
2023/07/15 01:56:41;;;;;;;5.18;2.50;;;19.90;64.20;;;;;;4989750;28;20255;-76
2023/07/15 01:59:11;;;;;;;6.18;2.50;;;19.90;64.20;;;;;;5009777;28;20054;-77
2023/07/15 02:01:40;;;;;;;5.88;2.63;;;20.00;64.10;;;;;;5009451;28;20073;-77
2023/07/15 02:04:07;;;;;;;5.15;2.55;;;20.00;64.00;;;;;;5006832;28;20050;-77
2023/07/15 02:06:34;;;;;;;4.60;2.50;;;20.00;64.00;;;;;;5006772;28;20141;-76
2023/07/15 02:09:01;;;;;;;5.30;2.75;;;20.00;63.70;;;;;;5008096;28;20273;-77
2023/07/15 02:11:28;;;;;;;9.35;2.85;;;20.00;63.60;;;;;;5004333;28;20584;-77
2023/07/15 02:13:54;;;;;;;5.97;2.50;;;20.00;63.50;;;;;;5022768;28;20049;-77
2023/07/15 02:16:23;;;;;;;5.53;2.63;;;20.00;63.30;;;;;;5026013;28;20100;-77
2023/07/15 02:18:50;;;;;;;5.57;2.70;;;20.00;63.20;;;;;;5006408;28;20050;-76
2023/07/15 02:21:19;;;;;;;6.10;2.70;;;20.00;63.20;;;;;;4989336;28;20267;-77
2023/07/15 02:23:46;;;;;;;5.03;2.55;;;20.00;63.10;;;;;;5020567;28;20132;-77
2023/07/15 02:26:13;;;;;;;5.63;2.50;;;20.00;63.10;;;;;;5009498;28;20583;-77
2023/07/15 02:28:40;;;;;;;5.70;2.42;;;20.00;63.10;;;;;;5008577;28;20488;-77
2023/07/15 02:31:07;;;;;;;5.13;2.37;;;20.00;63.10;;;;;;5027252;28;20077;-77
2023/07/15 02:33:36;;;;;;;5.22;2.53;;;20.00;63.20;;;;;;5022875;28;20285;-77
2023/07/15 02:36:04;;;;;;;4.65;2.30;;;20.00;63.20;;;;;;5006729;28;20054;-77
2023/07/15 02:38:31;;;;;;;4.35;2.55;;;20.00;63.20;;;;;;5022464;28;20074;-77
2023/07/15 02:40:58;;;;;;;5.75;2.47;;;20.00;63.10;;;;;;5008581;28;20129;-77
2023/07/15 02:43:25;;;;;;;4.17;2.17;;;20.00;63.20;;;;;;5009935;28;20136;-77
2023/07/15 02:45:52;;;;;;;5.30;2.53;;;20.00;63.00;;;;;;5008297;28;20253;-77
2023/07/15 02:48:20;;;;;;;5.88;2.40;;;20.00;63.00;;;;;;5009473;28;20062;-77
2023/07/15 02:50:51;;;;;;;6.78;2.70;;;20.00;62.80;;;;;;5009588;28;20048;-77
2023/07/15 02:53:18;;;;;;;5.38;2.60;;;20.00;62.70;;;;;;5009165;28;20128;-76
2023/07/15 02:55:46;;;;;;;6.30;2.70;;;20.00;62.70;;;;;;5009513;28;20064;-77
2023/07/15 02:58:16;;;;;;;4.47;2.38;;;20.00;62.60;;;;;;5020465;28;20270;-77
2023/07/15 03:00:43;;;;;;;5.25;2.50;;;20.00;62.30;;;;;;4988159;28;20363;-77
2023/07/15 03:03:10;;;;;;;5.38;2.50;;;20.00;61.90;;;;;;5009676;28;20054;-77
2023/07/15 03:05:37;;;;;;;5.50;2.53;;;20.00;61.80;;;;;;5024156;28;20042;-77
2023/07/15 03:08:06;;;;;;;5.87;2.83;;;20.00;61.60;;;;;;5005140;28;20436;-77
2023/07/15 03:10:33;;;;;;;4.32;2.30;;;20.00;61.40;;;;;;4991592;28;20563;-77
2023/07/15 03:12:59;;;;;;;6.15;2.72;;;20.00;61.50;;;;;;4998403;28;20140;-77
2023/07/15 03:15:27;;;;;;;6.50;2.90;;;20.00;61.10;;;;;;5028632;28;20057;-77
2023/07/15 03:17:54;;;;;;;5.53;2.80;;;20.00;60.90;;;;;;5030699;28;20054;-77
2023/07/15 03:20:21;;;;;;;9.67;2.97;;;20.00;61.00;;;;;;5010666;28;20070;-77
2023/07/15 03:22:50;;;;;;;6.40;2.50;;;20.00;60.90;;;;;;5011585;28;20334;-77
2023/07/15 03:25:19;;;;;;;6.97;2.30;;;20.00;60.80;;;;;;5029472;28;20443;-77
2023/07/15 03:27:46;;;;;;;5.57;2.50;;;20.00;60.70;;;;;;5012271;28;20661;-77
2023/07/15 03:30:14;;;;;;;6.25;2.85;;;20.00;60.80;;;;;;5012483;28;20608;-77
2023/07/15 03:32:43;;;;;;;4.53;2.50;;;20.10;60.70;;;;;;5028587;28;20045;-77
2023/07/15 03:35:13;;;;;;;5.43;2.30;;;20.10;60.70;;;;;;5029588;28;20257;-76
2023/07/15 03:37:43;;;;;;;5.30;2.65;;;20.10;60.60;;;;;;5012537;28;20421;-77
2023/07/15 03:40:11;;;;;;;6.13;2.55;;;20.00;60.50;;;;;;5023907;28;20061;-77
2023/07/15 03:42:40;;;;;;;5.60;2.33;;;20.10;60.50;;;;;;5010639;28;20051;-77
2023/07/15 03:45:09;;;;;;;5.50;2.43;;;20.10;60.50;;;;;;5011690;28;20393;-77
2023/07/15 03:47:36;;;;;;;4.80;2.38;;;20.10;60.40;;;;;;5028545;28;20560;-77
2023/07/15 03:50:03;;;;;;;6.93;2.72;;;20.10;60.40;;;;;;5028815;28;20042;-77
2023/07/15 03:52:30;;;;;;;4.68;2.45;;;20.00;60.50;;;;;;5028363;28;20053;-77
2023/07/15 03:54:58;;;;;;;6.88;2.40;;;20.00;60.50;;;;;;5030270;28;20053;-77
2023/07/15 03:57:26;;;;;;;5.27;2.40;;;20.00;60.40;;;;;;5026964;28;21001;-76
2023/07/15 03:59:54;;;;;;;6.13;2.58;;;20.00;60.30;;;;;;5028771;28;20757;-77
2023/07/15 04:02:21;;;;;;;5.20;2.50;;;20.00;60.40;;;;;;5028632;28;20062;-77
2023/07/15 04:04:48;;;;;;;6.63;2.45;;;20.00;60.40;;;;;;5028051;28;20852;-76
2023/07/15 04:07:16;;;;;;;5.90;2.40;;;20.00;60.40;;;;;;5028250;28;20046;-76
2023/07/15 04:09:43;;;;;;;5.40;2.50;;;20.00;60.40;;;;;;5029307;28;20397;-77
2023/07/15 04:12:11;;;;;;;5.22;2.30;;;20.00;60.40;;;;;;5027542;28;20752;-77
2023/07/15 04:14:37;;;;;;;6.10;2.50;;;20.00;60.40;;;;;;5013271;28;20101;-76
2023/07/15 04:17:06;;;;;;;4.93;2.38;;;20.00;60.50;;;;;;5008329;28;20050;-76
2023/07/15 04:19:33;;;;;;;4.63;2.20;;;20.00;60.60;;;;;;5020744;28;20046;-76
2023/07/15 04:22:01;;;;;;;6.77;2.50;;;20.00;60.60;;;;;;5027406;28;20076;-77
2023/07/15 04:24:28;;;;;;;3.60;2.00;;;20.00;60.60;;;;;;5028891;28;20269;-77
2023/07/15 04:26:55;;;;;;;4.95;2.17;;;20.00;60.70;;;;;;5029608;28;20046;-77
2023/07/15 04:29:22;;;;;;;5.60;2.60;;;20.00;60.80;;;;;;5029355;28;20054;-77
2023/07/15 04:31:49;;;;;;;5.43;2.30;;;20.00;60.80;;;;;;5017763;28;20050;-76
2023/07/15 04:34:17;;;;;;;6.47;2.40;;;20.00;60.90;;;;;;5018240;28;20050;-76
2023/07/15 04:36:44;;;;;;;4.80;2.30;;;20.00;60.90;;;;;;5031961;28;20275;-76
2023/07/15 04:39:11;;;;;;;5.78;2.45;;;20.00;61.00;;;;;;5036721;28;20132;-77
2023/07/15 04:41:38;;;;;;;6.10;2.35;;;20.00;61.10;;;;;;5038913;28;20052;-76
2023/07/15 04:44:05;;;;;;;4.43;2.38;;;20.00;61.20;;;;;;5035713;28;20129;-76
2023/07/15 04:46:33;;;;;;;9.37;2.57;;;20.00;61.40;;;;;;5045659;28;20572;-76
2023/07/15 04:49:00;;;;;;;9.10;4.97;;;20.00;61.50;;;;;;5036353;28;20675;-76
2023/07/15 04:51:29;;;;;;;6.07;2.78;;;20.00;61.50;;;;;;5028479;28;20054;-76
2023/07/15 04:53:56;;;;;;;7.55;2.50;;;20.00;61.60;;;;;;5028632;28;20054;-76
2023/07/15 04:56:24;;;;;;;5.50;2.53;;;20.00;61.70;;;;;;5028438;28;20574;-76
2023/07/15 04:58:52;;;;;;;15.07;6.67;;;20.00;61.70;;;;;;5011325;28;20659;-76
2023/07/15 05:01:19;;;;;;;23.38;8.80;;;20.00;61.80;;;;;;5027953;28;20278;-76
2023/07/15 05:03:46;;;;;;;8.20;3.80;;;20.10;61.90;;;;;;5026546;28;20476;-76
2023/07/15 05:06:13;;;;;;;6.93;3.00;;;20.10;61.90;;;;;;5023528;28;20050;-76
2023/07/15 05:08:42;;;;;;;7.80;2.80;;;20.10;61.90;;;;;;5026335;28;20060;-76
2023/07/15 05:11:09;;;;;;;7.67;2.93;;;20.10;62.00;;;;;;5029175;28;20501;-76
2023/07/15 05:13:36;;;;;;;5.45;2.88;;;20.10;62.10;;;;;;5027725;28;20364;-76
2023/07/15 05:16:03;;;;;;;6.97;3.10;;;20.10;62.10;;;;;;5027701;28;20052;-76
2023/07/15 05:18:30;;;;;;;25.77;12.60;;;20.10;62.20;;;;;;5043916;28;20057;-76
2023/07/15 05:20:57;;;;;;;7.43;3.47;;;20.20;62.30;;;;;;5027807;28;20543;-76
2023/07/15 05:23:24;;;;;;;9.17;3.50;;;20.20;62.30;;;;;;5009090;28;20561;-76
2023/07/15 05:25:53;;;;;;;4.65;2.70;;;20.30;62.30;;;;;;5007831;28;20353;-76
2023/07/15 05:28:20;;;;;;;5.03;2.70;;;20.30;62.40;;;;;;5007755;28;20125;-76
2023/07/15 05:30:47;;;;;;;7.15;3.00;;;20.30;62.40;;;;;;5028030;28;20041;-77
2023/07/15 05:33:14;;;;;;;6.32;2.40;;;20.30;62.30;;;;;;5031511;28;20153;-76
2023/07/15 05:35:41;;;;;;;5.13;2.43;;;20.30;62.50;;;;;;5032298;28;20050;-76
2023/07/15 05:38:08;;;;;;;7.00;2.50;;;20.30;62.50;;;;;;5016027;28;20849;-76
2023/07/15 05:40:42;;;;;;;6.70;2.40;;;20.30;62.50;;;;;;5035146;28;20050;-76
2023/07/15 05:43:11;;;;;;;5.80;2.60;;;20.30;62.60;;;;;;5031507;28;20057;-76
2023/07/15 05:45:37;;;;;;;5.85;2.60;;;20.40;62.70;;;;;;5024060;28;20050;-76
2023/07/15 05:48:05;;;;;;;5.43;2.90;;;20.50;62.80;;;;;;5026801;28;20638;-76
2023/07/15 05:50:36;;;;;;;6.25;2.90;;;20.50;62.90;;;;;;5017454;28;20364;-76
2023/07/15 05:53:03;;;;;;;6.43;2.83;;;20.50;63.00;;;;;;5009964;28;20635;-76
2023/07/15 05:55:31;;;;;;;6.85;2.80;;;20.50;63.00;;;;;;5022515;28;20140;-76
2023/07/15 05:57:58;;;;;;;6.32;2.60;;;20.50;63.00;;;;;;5024245;28;20047;-78
2023/07/15 06:00:26;;;;;;;6.53;3.30;;;20.60;63.00;;;;;;5020448;28;20052;-76
2023/07/15 06:02:58;;;;;;;9.57;3.22;;;20.60;63.00;;;;;;5039768;28;20278;-76
2023/07/15 06:05:25;;;;;;;6.40;2.50;;;20.70;63.10;;;;;;5023165;28;20064;-76
2023/07/15 06:07:52;;;;;;;9.30;4.53;;;20.70;63.20;;;;;;5024532;28;20046;-76
2023/07/15 06:10:19;;;;;;;7.10;3.00;;;20.80;63.20;;;;;;5028882;28;20046;-76
2023/07/15 06:12:46;;;;;;;6.13;2.73;;;20.80;63.40;;;;;;5033395;28;20053;-77
2023/07/15 06:15:12;;;;;;;5.38;2.55;;;20.90;63.60;;;;;;5032700;28;20335;-76
2023/07/15 06:17:41;;;;;;;7.82;2.50;;;20.90;63.70;;;;;;5032055;28;20141;-76
2023/07/15 06:20:09;;;;;;;6.10;2.35;;;21.00;63.90;;;;;;5020910;28;20456;-77
2023/07/15 06:22:36;;;;;;;5.47;2.30;;;21.00;64.00;;;;;;5022439;28;20061;-76
2023/07/15 06:25:03;;;;;;;6.37;2.70;;;21.00;63.90;;;;;;5020163;28;20172;-76
2023/07/15 06:27:31;;;;;;;5.40;2.60;;;21.10;63.70;;;;;;5022607;28;20965;-76
2023/07/15 06:29:58;;;;;;;5.78;2.70;;;21.10;63.70;;;;;;5019273;28;20054;-77
2023/07/15 06:32:25;;;;;;;4.07;2.20;;;21.20;63.70;;;;;;5010490;28;20050;-76
2023/07/15 06:34:53;;;;;;;5.63;3.40;;;21.30;63.80;;;;;;5017725;28;20073;-76
2023/07/15 06:37:20;;;;;;;5.57;2.80;;;21.30;63.90;;;;;;5018543;28;20050;-76
2023/07/15 06:39:47;;;;;;;6.15;2.60;;;21.40;64.10;;;;;;5009713;28;20761;-77
2023/07/15 06:42:13;;;;;;;5.15;2.50;;;21.40;64.20;;;;;;5017820;28;20046;-76
2023/07/15 06:44:40;;;;;;;5.13;2.42;;;21.50;64.30;;;;;;5023071;28;20480;-76
2023/07/15 06:47:07;;;;;;;8.00;2.40;;;21.50;64.50;;;;;;5019397;28;20181;-77
2023/07/15 06:49:34;;;;;;;7.03;2.63;;;21.50;64.70;;;;;;5022043;28;20513;-77
2023/07/15 06:52:02;;;;;;;6.53;2.35;;;21.60;64.70;;;;;;5015264;28;20260;-77
2023/07/15 06:54:31;;;;;;;5.43;2.65;;;21.70;64.50;;;;;;5029188;28;20062;-77
2023/07/15 06:56:58;;;;;;;4.53;2.38;;;21.70;64.40;;;;;;5011685;28;20080;-76
2023/07/15 06:59:25;;;;;;;7.55;2.60;;;21.90;64.20;;;;;;5018051;28;20141;-75
2023/07/15 07:01:52;;;;;;;6.07;2.47;;;21.90;64.30;;;;;;5019336;28;20453;-76
2023/07/15 07:04:19;;;;;;;6.38;2.38;;;21.90;64.40;;;;;;5018688;28;20276;-76
2023/07/15 07:06:46;;;;;;;6.47;2.40;;;21.90;64.60;;;;;;5020719;28;20703;-76
2023/07/15 07:09:14;;;;;;;5.60;2.40;;;22.00;64.60;;;;;;5033175;28;20057;-76
2023/07/15 07:11:41;;;;;;;5.32;2.40;;;22.00;64.70;;;;;;5020448;28;20516;-75
2023/07/15 07:14:09;;;;;;;4.30;2.33;;;22.10;64.60;;;;;;5022544;28;20054;-76
2023/07/15 07:16:36;;;;;;;4.38;1.90;;;22.20;64.70;;;;;;5026264;28;20657;-76
2023/07/15 07:19:03;;;;;;;5.88;2.40;;;22.20;64.90;;;;;;5018477;28;20049;-75
2023/07/15 07:21:30;;;;;;;4.95;2.17;;;22.30;64.70;;;;;;5025543;28;20058;-76
2023/07/15 07:23:56;;;;;;;4.38;2.20;;;22.30;64.60;;;;;;5014297;28;20547;-76
2023/07/15 07:26:25;;;;;;;6.13;2.23;;;22.30;64.90;;;;;;5016574;28;20055;-76
2023/07/15 07:28:52;;;;;;;5.22;2.45;;;22.40;65.10;;;;;;5018980;28;20285;-78
2023/07/15 07:31:19;;;;;;;5.47;2.35;;;22.40;65.10;;;;;;5007564;28;20476;-79
2023/07/15 07:33:46;;;;;;;6.82;2.28;;;22.50;65.50;;;;;;5025558;28;20054;-81
2023/07/15 07:36:13;;;;;;;5.25;2.10;;;22.50;65.70;;;;;;5022514;28;20045;-82
2023/07/15 07:38:40;;;;;;;6.40;2.50;;;22.50;65.70;;;;;;5013143;28;20050;-79
2023/07/15 07:41:08;;;;;;;5.30;2.38;;;22.50;65.30;;;;;;5017200;28;20328;-79
2023/07/15 07:43:37;;;;;;;4.63;2.20;;;22.50;65.10;;;;;;5017530;28;20523;-79
2023/07/15 07:46:05;;;;;;;6.50;2.40;;;22.60;65.20;;;;;;5023766;28;20042;-79
2023/07/15 07:48:33;;;;;;;4.40;1.95;;;22.60;65.50;;;;;;5022260;28;20061;-79
2023/07/15 07:51:00;;;;;;;3.90;2.30;;;22.60;65.40;;;;;;5005050;28;20042;-78
2023/07/15 07:53:28;;;;;;;5.45;2.40;;;22.60;65.50;;;;;;5021418;28;20257;-78
2023/07/15 07:55:55;;;;;;;5.00;2.50;;;22.70;65.60;;;;;;5037691;28;20043;-79
2023/07/15 07:58:22;;;;;;;5.07;2.17;;;22.70;65.20;;;;;;5037692;28;20139;-79
2023/07/15 08:00:50;;;;;;;5.35;2.00;;;22.80;65.30;;;;;;5036063;28;20050;-79
2023/07/15 08:03:17;;;;;;;4.13;2.13;;;22.80;65.70;;;;;;5026978;28;20062;-79
2023/07/15 08:05:46;;;;;;;4.72;2.13;;;22.90;66.00;;;;;;5027741;28;20270;-79
2023/07/15 08:08:14;;;;;;;4.40;2.10;;;22.90;66.10;;;;;;5029014;28;20667;-79
2023/07/15 08:10:41;;;;;;;5.45;1.90;;;22.90;65.90;;;;;;5029055;28;20065;-79
2023/07/15 08:13:08;;;;;;;4.63;2.08;;;23.00;65.20;;;;;;5027223;28;20102;-78
2023/07/15 08:15:36;;;;;;;4.47;1.90;;;23.10;64.80;;;;;;5027307;28;20125;-79
2023/07/15 08:18:07;;;;;;;5.82;1.92;;;23.10;64.90;;;;;;5027869;28;20273;-79
2023/07/15 08:20:34;;;;;;;5.25;2.22;;;23.10;65.40;;;;;;5029524;28;20373;-79
2023/07/15 08:23:01;;;;;;;4.63;2.10;;;23.20;65.40;;;;;;5029119;28;20058;-79
2023/07/15 08:25:29;;;;;;;5.07;2.10;;;23.20;65.40;;;;;;5028758;28;20046;-79
2023/07/15 08:27:55;;;;;;;4.60;2.20;;;23.20;65.00;;;;;;5028556;28;20060;-79
2023/07/15 08:30:23;;;;;;;4.40;2.17;;;23.30;64.70;;;;;;5030208;28;20351;-79
2023/07/15 08:32:50;;;;;;;5.53;2.80;;;23.30;65.00;;;;;;5028863;28;20058;-78
2023/07/15 08:35:18;;;;;;;5.88;2.70;;;23.30;65.40;;;;;;5028847;28;20046;-79
2023/07/15 08:37:45;;;;;;;5.60;2.70;;;23.30;65.70;;;;;;5029178;28;20505;-79
2023/07/15 08:40:13;;;;;;;5.27;2.40;;;23.30;66.10;;;;;;5028768;28;20579;-79
2023/07/15 08:42:40;;;;;;;5.82;2.50;;;23.40;66.10;;;;;;5028380;28;20256;-78
2023/07/15 08:45:08;;;;;;;5.60;2.55;;;23.40;65.40;;;;;;5028439;28;20046;-79
2023/07/15 08:47:37;;;;;;;4.70;2.20;;;23.50;65.40;;;;;;5028632;28;20077;-79
2023/07/15 08:50:05;;;;;;;6.03;2.80;;;23.50;65.40;;;;;;5028196;28;20572;-79
2023/07/15 08:52:36;;;;;;;5.10;2.60;;;23.50;65.60;;;;;;5012100;28;20050;-79
2023/07/15 08:55:04;;;;;;;4.88;2.70;;;23.60;65.50;;;;;;5024088;28;20633;-79
2023/07/15 08:57:33;;;;;;;4.60;2.65;;;23.60;65.40;;;;;;5012301;28;20045;-79
2023/07/15 09:00:00;;;;;;;5.25;2.80;;;23.60;65.40;;;;;;5029711;28;20060;-79
2023/07/15 09:02:27;;;;;;;5.75;2.58;;;23.60;65.10;;;;;;5028215;28;20137;-79
2023/07/15 09:04:54;;;;;;;6.00;2.53;;;23.60;64.40;;;;;;5028367;28;20566;-79
2023/07/15 09:07:27;;;;;;;5.72;2.60;;;23.70;64.90;;;;;;5027391;28;20280;-79
2023/07/15 09:09:55;;;;;;;6.15;2.45;;;23.80;65.10;;;;;;5028389;28;20567;-79
2023/07/15 09:12:24;;;;;;;5.18;2.45;;;23.90;64.60;;;;;;5026732;28;20054;-79
2023/07/15 09:14:51;;;;;;;4.47;2.50;;;23.90;64.20;;;;;;5028690;28;20556;-79
2023/07/15 09:17:20;;;;;;;5.30;2.70;;;23.90;63.90;;;;;;5028135;28;20056;-79
2023/07/15 09:19:48;;;;;;;5.57;2.60;;;24.00;64.00;;;;;;5027766;28;20312;-79
2023/07/15 09:22:16;;;;;;;4.65;2.40;;;24.00;63.70;;;;;;5028918;28;20072;-79
2023/07/15 09:24:43;;;;;;;5.70;2.70;;;24.00;63.70;;;;;;5028179;28;21013;-79
2023/07/15 09:27:11;;;;;;;4.32;2.30;;;24.00;63.90;;;;;;5027757;28;20056;-79
2023/07/15 09:29:38;;;;;;;4.27;2.30;;;24.10;63.80;;;;;;5028341;28;20215;-79
2023/07/15 09:32:07;;;;;;;5.75;2.50;;;24.10;64.50;;;;;;5027164;28;20328;-79
2023/07/15 09:34:39;;;;;;;4.45;2.55;;;24.20;64.70;;;;;;5029210;28;20045;-79
2023/07/15 09:37:06;;;;;;;3.78;1.80;;;24.20;64.70;;;;;;5029269;28;20058;-79
2023/07/15 09:39:32;;;;;;;5.97;2.25;;;24.20;64.50;;;;;;5027689;28;20041;-79
2023/07/15 09:42:00;;;;;;;4.53;2.40;;;24.20;64.40;;;;;;5024592;28;20042;-79
2023/07/15 09:44:36;;;;;;;5.22;2.13;;;24.20;64.20;;;;;;5007756;28;20692;-80
2023/07/15 09:47:04;;;;;;;4.38;2.20;;;24.30;64.00;;;;;;5018088;28;20056;-79
2023/07/15 09:49:31;;;;;;;4.10;2.20;;;24.30;64.00;;;;;;5027772;28;20065;-79
2023/07/15 09:51:59;;;;;;;4.32;1.88;;;24.20;64.60;;;;;;5007862;28;20141;-80
2023/07/15 09:54:27;;;;;;;4.20;2.00;;;24.30;64.40;;;;;;5007700;28;20162;-79
2023/07/15 09:57:00;;;;;;;5.30;2.00;;;24.30;64.80;;;;;;5021543;28;20281;-79
2023/07/15 09:59:28;;;;;;;4.90;2.20;;;24.40;64.30;;;;;;5029033;28;20056;-79
2023/07/15 10:02:00;;;;;;;4.55;2.20;;;24.40;63.90;;;;;;5027477;28;20069;-79
2023/07/15 10:04:33;;;;;;;4.47;2.03;;;24.40;64.00;;;;;;4999935;28;20516;-79
2023/07/15 10:07:02;;;;;;;4.03;1.90;;;24.40;63.80;;;;;;5028905;28;20096;-79
2023/07/15 10:09:31;;;;;;;4.65;2.15;;;24.40;64.00;;;;;;5027462;28;20257;-79
2023/07/15 10:11:58;;;;;;;4.00;1.90;;;24.40;64.40;;;;;;5027207;28;20536;-79
2023/07/15 10:14:26;;;;;;;5.30;1.90;;;24.50;64.00;;;;;;5009991;28;20053;-79
2023/07/15 10:17:11;;;;;;;3.80;1.75;;;24.50;63.60;;;;;;5027183;28;20054;-79
2023/07/15 10:19:46;;;;;;;4.17;1.50;;;24.60;63.00;;;;;;5028496;28;20068;-79
2023/07/15 10:22:14;;;;;;;3.90;1.50;;;24.60;61.80;;;;;;5022564;28;20393;-79
2023/07/15 10:24:42;;;;;;;4.93;1.50;;;24.70;61.20;;;;;;5026395;28;20421;-79
2023/07/15 10:27:11;;;;;;;3.90;1.50;;;24.70;61.70;;;;;;5028275;28;20062;-79
2023/07/15 10:29:39;;;;;;;3.85;1.73;;;24.80;61.10;;;;;;5026583;28;20074;-79
2023/07/15 10:32:12;;;;;;;2.97;1.60;;;24.80;61.50;;;;;;5027988;28;20378;-79
2023/07/15 10:34:42;;;;;;;4.07;1.65;;;24.80;61.70;;;;;;5028632;28;20269;-79
2023/07/15 10:37:11;;;;;;;5.53;1.60;;;24.80;62.50;;;;;;5027994;28;20064;-78
2023/07/15 10:39:39;;;;;;;4.82;1.55;;;25.00;62.10;;;;;;5019967;28;20050;-79
2023/07/15 10:42:11;;;;;;;3.58;1.75;;;25.00;61.00;;;;;;5020585;28;20116;-79
2023/07/15 10:44:40;;;;;;;4.43;1.90;;;25.00;61.00;;;;;;5029474;28;20041;-80
2023/07/15 10:47:07;;;;;;;3.20;1.58;;;25.10;60.90;;;;;;5032219;28;20317;-81
2023/07/15 10:49:35;;;;;;;3.88;1.73;;;25.20;60.80;;;;;;5028661;28;20050;-80
2023/07/15 10:52:04;;;;;;;4.25;1.85;;;25.20;60.80;;;;;;5030428;28;20050;-81
2023/07/15 10:54:35;;;;;;;4.00;1.60;;;25.20;60.60;;;;;;5031942;28;20050;-81
2023/07/15 10:57:08;;;;;;;4.70;1.37;;;25.30;60.00;;;;;;5026304;28;20512;-79
2023/07/15 10:59:36;;;;;;;3.15;1.30;;;25.40;59.70;;;;;;5030544;28;20340;-79
2023/07/15 11:02:04;;;;;;;4.78;1.50;;;25.40;59.30;;;;;;5020230;28;20058;-79
2023/07/15 11:04:31;;;;;;;3.50;1.48;;;25.40;58.90;;;;;;5012719;28;20058;-80
2023/07/15 11:07:01;;;;;;;3.67;1.40;;;25.50;58.20;;;;;;5019315;28;20053;-79
2023/07/15 11:09:29;;;;;;;3.43;1.40;;;25.50;58.90;;;;;;5005231;28;20054;-79
2023/07/15 11:11:56;;;;;;;4.35;1.63;;;25.50;59.00;;;;;;5026682;28;20589;-80
2023/07/15 11:14:25;;;;;;;3.75;1.60;;;25.50;59.40;;;;;;5021747;28;20050;-78
2023/07/15 11:16:53;;;;;;;4.43;1.70;;;25.50;59.00;;;;;;5029304;28;20508;-80
2023/07/15 11:19:20;;;;;;;4.90;1.77;;;25.60;58.70;;;;;;5020816;28;20057;-77
2023/07/15 11:21:47;;;;;;;4.80;2.00;;;25.50;59.30;;;;;;5021503;28;20765;-82
2023/07/15 11:24:15;;;;;;;3.67;1.58;;;25.50;59.50;;;;;;5037686;28;20255;-80
2023/07/15 11:26:43;;;;;;;5.57;1.73;;;25.50;59.80;;;;;;5016560;28;20050;-75
2023/07/15 11:29:18;;;;;;;4.55;1.63;;;25.50;59.80;;;;;;5024735;28;20053;-79
2023/07/15 11:31:47;;;;;;;4.85;1.60;;;25.60;60.00;;;;;;5017476;28;20544;-76
2023/07/15 11:34:17;;;;;;;4.20;1.77;;;25.60;59.70;;;;;;5016377;28;20901;-78
2023/07/15 11:36:44;;;;;;;5.05;1.98;;;25.60;59.30;;;;;;5023308;28;20401;-75
2023/07/15 11:39:13;;;;;;;3.90;1.67;;;25.60;59.10;;;;;;5025334;28;20050;-75
2023/07/15 11:41:41;;;;;;;3.67;1.60;;;25.60;59.00;;;;;;5030929;28;20062;-78
2023/07/15 11:44:11;;;;;;;6.03;1.60;;;25.60;59.30;;;;;;5028024;28;20058;-79
2023/07/15 11:46:38;;;;;;;6.27;1.70;;;25.60;59.70;;;;;;5014259;28;20050;-79
2023/07/15 11:49:06;;;;;;;4.13;1.70;;;25.50;60.10;;;;;;5021552;28;20713;-81
2023/07/15 11:51:34;;;;;;;4.97;1.83;;;25.50;59.90;;;;;;5023087;28;20058;-76
2023/07/15 11:54:02;;;;;;;6.43;1.63;;;25.50;59.40;;;;;;5017365;28;20050;-81
2023/07/15 11:56:37;;;;;;;3.10;1.50;;;25.50;59.70;;;;;;5012705;28;20503;-77
2023/07/15 11:59:08;;;;;;;3.87;1.50;;;25.50;59.40;;;;;;5031920;28;20049;-76
2023/07/15 12:01:37;;;;;;;3.65;1.80;;;25.40;59.30;;;;;;5030643;28;20734;-77
2023/07/15 12:04:13;;;;;;;4.60;1.80;;;25.40;59.60;;;;;;5028707;28;20120;-79
2023/07/15 12:06:48;;;;;;;5.20;1.80;;;25.40;59.60;;;;;;5024738;28;20057;-79
2023/07/15 12:09:15;;;;;;;4.03;1.90;;;25.40;59.70;;;;;;5042036;28;20108;-82
2023/07/15 12:11:44;;;;;;;4.03;1.60;;;25.40;59.70;;;;;;5026931;28;20428;-82
2023/07/15 12:14:15;;;;;;;6.55;2.08;;;25.40;59.80;;;;;;5030113;28;20280;-78
2023/07/15 12:16:43;;;;;;;4.10;1.83;;;25.40;59.80;;;;;;5029835;28;20173;-81
2023/07/15 12:19:12;;;;;;;5.30;2.00;;;25.40;59.10;;;;;;5009668;28;20042;-80
2023/07/15 12:21:40;;;;;;;5.00;1.50;;;25.40;59.40;;;;;;5027736;28;20078;-77
2023/07/15 12:24:07;;;;;;;4.20;1.67;;;25.50;58.80;;;;;;5032690;28;20834;-75
2023/07/15 12:26:34;;;;;;;3.75;1.63;;;25.50;58.90;;;;;;5030669;28;20277;-75
2023/07/15 12:29:01;;;;;;;3.72;1.58;;;25.50;59.00;;;;;;5029947;28;20046;-76
2023/07/15 12:31:30;;;;;;;5.32;1.98;;;25.50;59.00;;;;;;5035042;28;20061;-77
2023/07/15 12:33:57;;;;;;;6.15;1.60;;;25.50;58.50;;;;;;5034825;28;20144;-80
2023/07/15 12:36:24;;;;;;;4.77;2.00;;;25.50;58.20;;;;;;5029166;28;20089;-75
2023/07/15 12:38:51;;;;;;;5.38;1.80;;;25.50;57.80;;;;;;5024906;28;20242;-75
2023/07/15 12:41:18;;;;;;;3.20;1.60;;;25.50;57.60;;;;;;5023023;28;20140;-76
2023/07/15 12:43:45;;;;;;;3.80;1.80;;;25.40;57.80;;;;;;5020117;28;20046;-76
2023/07/15 12:46:12;;;;;;;3.45;1.58;;;25.40;57.90;;;;;;5023014;28;20054;-76
2023/07/15 12:48:41;;;;;;;3.50;1.57;;;25.40;58.50;;;;;;5020338;28;20049;-75